To NAV CANADA Home Page Login to a new session Search on AWWS site Feedback and Comments Disclaimer Vers la page française équivalente Tips FAQ What's new on the site To the Forecasts and Observations / NOTAM section To "File a Flight Plan" website Publications and other links Update of the User's profile FIC Telephone Numbers My Weather Data Folder Route Weather Data Regional Weather Data Local Weather Data To the Forecasts and Observations / NOTAM section
Request Generated 10/01/2016 at 08:38:59 UTC . Weather information available at that time is displayed.

METAR/TAF

TORONTO/BILLY BISHOP TORONTO CITY AIRPORT/ON    (show WxCam)

SPECI CYTZ 010836Z AUTO 08016KT 9SM -RA BKN012 OVC028 14/12 A3018 RMK
SLP222=
METAR CYTZ 010800Z AUTO 07019KT 9SM BKN012 OVC030 14/12 A3017 RMK
SLP220=
METAR CYTZ 010700Z AUTO 08015G24KT 9SM BKN014 OVC030 14/12 A3020 RMK
SLP229=
SPECI CYTZ 010651Z AUTO 08018G24KT 9SM BKN014 OVC030 14/12 A3020 RMK
SLP228=
SPECI CYTZ 010642Z AUTO 07017G22KT 9SM SCT014 OVC030 14/12 A3020 RMK
SLP229=
SPECI CYTZ 010609Z AUTO 09016G22KT 9SM BKN014 OVC030 14/11 A3022 RMK
SLP234=
METAR CYTZ 010600Z AUTO 09015G21KT 9SM SCT014 OVC030 14/11 A3022 RMK
SLP235=

TAF CYTZ 010739Z 0108/0208 09011G21KT P6SM BKN025 TEMPO 0108/0114 5SM
-RA BR BKN008
FM011400 09012G22KT 5SM -RA -DZ BR BKN008 OVC015
BECMG 0121/0123 21/2SM SHRA BR
FM020400 14007KT 3SM -SHRA BR BKN008 OVC060 PROB30 0204/0208
11/2SM SHRA BR
RMK FCST BASED ON AUTO OBS. NXT FCST BY 011400Z=
Your time UTC time
Weather data provided by Environment Canada and NAV CANADA